Endeavour — C6BE4 — position and weather

sailwx.info

Track history (hours):
 
Tides and Currents Weather Stations Pressure Air Temp Water Temp Dewpoint Dewpoint Depression Visibility Wind Speed Wind Dir Waves Ship Positions

Endeavour

Operator: Lindblad Expeditions

Last reported at 2018-Oct-20 02:01 UTC. Time now 2018-Oct-20 02:10 UTC.
Position N 29°56' W 089°59'.

Length 190 m; draft 12.6 m.

Type: Cargo ship. MMSI: 311000239.

Date/timePositionNaut miles runAvg speedWind from/ knotsBaromVisibWave heightAir tempDewpointWater temp
2018-Oct-20 02:01N 29°56' W 089°59'0 0.1
2018-Oct-20 01:55N 29°56' W 089°59'0 0.0
2018-Oct-20 01:28N 29°56' W 089°59'0 0.0
2018-Oct-20 01:01N 29°56' W 089°59'0 0.1
2018-Oct-20 00:55N 29°56' W 089°59'0 0.0
2018-Oct-20 00:28N 29°56' W 089°59'0 0.0
2018-Oct-20 00:01N 29°56' W 089°59'0 0.1
2018-Oct-19 23:55N 29°56' W 089°59'0 0.0
2018-Oct-19 23:30N 29°56' W 089°59'0 0.0
2018-Oct-19 23:03N 29°56' W 089°59'0 0.4
2018-Oct-19 23:00N 29°56' W 089°59'0 0.1
2018-Oct-19 22:30N 29°56' W 089°59'1 2.0
2018-Oct-19 22:03N 29°55' W 089°58'0 6.8
2018-Oct-19 22:00N 29°55' W 089°58'4 7.4
2018-Oct-19 21:30N 29°53' W 089°54'3 6.3
2018-Oct-19 21:03N 29°53' W 089°57'0 8.2
2018-Oct-19 21:00N 29°53' W 089°58'4 8.9
2018-Oct-19 20:30N 29°49' W 090°00'4 8.7
2018-Oct-19 20:03N 29°45' W 090°01'0 9.4
2018-Oct-19 20:00N 29°45' W 090°01'5 9.3
2018-Oct-19 19:26N 29°40' W 089°57'  
Track history (hours):
 
Tides and Currents Weather Stations Pressure Air Temp Water Temp Dewpoint Dewpoint Depression Visibility Wind Speed Wind Dir Waves Ship Positions

Endeavour

Operator: Lindblad Expeditions

Last reported at 2018-Oct-20 02:01 UTC. Time now 2018-Oct-20 02:10 UTC.
Position N 29°56' W 089°59'.

Length 190 m; draft 12.6 m.

Type: Cargo ship. MMSI: 311000239.

Date/timePositionNaut miles runAvg speedWind from/ knotsBaromVisibWave heightAir tempDewpointWater temp
2018-Oct-20 02:01N 29°56' W 089°59'0 0.1
2018-Oct-20 01:55N 29°56' W 089°59'0 0.0
2018-Oct-20 01:28N 29°56' W 089°59'0 0.0
2018-Oct-20 01:01N 29°56' W 089°59'0 0.1
2018-Oct-20 00:55N 29°56' W 089°59'0 0.0
2018-Oct-20 00:28N 29°56' W 089°59'0 0.0
2018-Oct-20 00:01N 29°56' W 089°59'0 0.1
2018-Oct-19 23:55N 29°56' W 089°59'0 0.0
2018-Oct-19 23:30N 29°56' W 089°59'0 0.0
2018-Oct-19 23:03N 29°56' W 089°59'0 0.4
2018-Oct-19 23:00N 29°56' W 089°59'0 0.1
2018-Oct-19 22:30N 29°56' W 089°59'1 2.0
2018-Oct-19 22:03N 29°55' W 089°58'0 6.8
2018-Oct-19 22:00N 29°55' W 089°58'4 7.4
2018-Oct-19 21:30N 29°53' W 089°54'3 6.3
2018-Oct-19 21:03N 29°53' W 089°57'0 8.2
2018-Oct-19 21:00N 29°53' W 089°58'4 8.9
2018-Oct-19 20:30N 29°49' W 090°00'4 8.7
2018-Oct-19 20:03N 29°45' W 090°01'0 9.4
2018-Oct-19 20:00N 29°45' W 090°01'5 9.3
2018-Oct-19 19:26N 29°40' W 089°57'  

Dump ship's entire track history